Time;durP1;ratioP1;P1;durP2;ratioP2;P2;SDS_P1;SDS_P2;PMS_P1;PMS_P2;Temp;Humidity;BMP_temperature;BMP_pressure;BME280_temperature;BME280_humidity;BME280_pressure;Samples;Min_cycle;Max_cycle;Signal;HPM_P1;HPM_P2
2022/06/20 00:02:03;;;;;;;7.05;4.68;;;;;;;;;;5069130;28;20039;-69
2022/06/20 00:04:29;;;;;;;8.00;5.10;;;;;;;;;;5068108;28;20024;-70
2022/06/20 00:06:55;;;;;;;5.70;4.22;;;;;;;;;;5069202;28;20055;-71
2022/06/20 00:09:21;;;;;;;4.28;3.88;;;;;;;;;;5068314;28;20091;-69
2022/06/20 00:11:50;;;;;;;6.07;3.85;;;;;;;;;;5064090;28;20032;-70
2022/06/20 00:14:17;;;;;;;4.47;4.10;;;;;;;;;;5057474;28;20071;-70
2022/06/20 00:16:44;;;;;;;4.47;4.00;;;;;;;;;;5063223;28;20044;-69
2022/06/20 00:19:10;;;;;;;7.32;4.30;;;;;;;;;;5062286;28;20036;-69
2022/06/20 00:21:37;;;;;;;5.47;4.10;;;;;;;;;;5061956;28;20029;-69
2022/06/20 00:24:03;;;;;;;6.85;4.15;;;;;;;;;;5062050;28;20573;-70
2022/06/20 00:26:30;;;;;;;4.22;3.88;;;;;;;;;;5061800;28;20036;-68
2022/06/20 00:28:56;;;;;;;4.28;3.88;;;;;;;;;;5061653;28;20068;-70
2022/06/20 00:31:22;;;;;;;4.43;3.80;;;;;;;;;;5044465;28;20033;-69
2022/06/20 00:33:49;;;;;;;4.55;3.97;;;;;;;;;;5064520;28;20025;-70
2022/06/20 00:36:15;;;;;;;5.35;4.00;;;;;;;;;;5058048;28;20048;-69
2022/06/20 00:38:43;;;;;;;4.20;3.90;;;;;;;;;;5063145;28;20024;-71
2022/06/20 00:41:17;;;;;;;4.60;4.00;;;;;;;;;;5065791;28;20055;-70
2022/06/20 00:43:45;;;;;;;4.68;4.28;;;;;;;;;;5044205;28;20530;-69
2022/06/20 00:46:14;;;;;;;4.93;4.40;;;;;;;;;;5063880;28;20071;-69
2022/06/20 00:48:50;;;;;;;4.55;4.15;;;;;;;;;;5060457;28;20035;-69
2022/06/20 00:51:27;;;;;;;3.95;3.65;;;;;;;;;;5058933;28;20381;-68
2022/06/20 00:54:19;;;;;;;5.43;3.72;;;;;;;;;;5057844;28;20021;-70
2022/06/20 00:56:54;;;;;;;4.50;4.03;;;;;;;;;;5058896;28;20071;-69
2022/06/20 00:59:24;;;;;;;4.78;4.07;;;;;;;;;;5059867;28;20044;-69
2022/06/20 01:01:51;;;;;;;5.78;4.38;;;;;;;;;;5055867;28;20029;-69
2022/06/20 01:04:24;;;;;;;4.40;4.00;;;;;;;;;;5059883;28;20081;-69
2022/06/20 01:06:57;;;;;;;7.38;4.63;;;;;;;;;;5058020;28;20028;-69
2022/06/20 01:09:26;;;;;;;6.50;4.57;;;;;;;;;;5060801;28;20024;-69
2022/06/20 01:11:54;;;;;;;6.82;4.93;;;;;;;;;;5062815;28;20086;-69
2022/06/20 01:14:22;;;;;;;6.10;5.40;;;;;;;;;;5061958;28;20032;-70
2022/06/20 01:16:49;;;;;;;5.45;4.90;;;;;;;;;;5062427;28;20481;-70
2022/06/20 01:19:23;;;;;;;5.65;5.15;;;;;;;;;;5059926;28;20518;-70
2022/06/20 01:21:49;;;;;;;5.50;4.68;;;;;;;;;;5060033;28;20029;-70
2022/06/20 01:24:32;;;;;;;7.47;5.18;;;;;;;;;;5046795;28;20438;-70
2022/06/20 01:27:17;;;;;;;6.85;4.72;;;;;;;;;;5056261;28;20389;-69
2022/06/20 01:29:43;;;;;;;5.65;5.05;;;;;;;;;;5058620;28;20060;-69
2022/06/20 01:32:11;;;;;;;4.78;4.25;;;;;;;;;;5059157;28;20124;-70
2022/06/20 01:34:37;;;;;;;5.40;4.90;;;;;;;;;;5061536;28;20093;-70
2022/06/20 01:37:26;;;;;;;5.65;4.60;;;;;;;;;;5058117;28;20559;-70
2022/06/20 01:39:57;;;;;;;5.63;4.40;;;;;;;;;;5058794;28;20044;-70
2022/06/20 01:42:23;;;;;;;4.78;4.18;;;;;;;;;;5061745;28;20020;-70
2022/06/20 01:44:49;;;;;;;5.45;4.55;;;;;;;;;;5053334;28;20056;-69
2022/06/20 01:47:16;;;;;;;5.20;4.68;;;;;;;;;;5061840;28;20020;-70
2022/06/20 01:49:44;;;;;;;5.80;5.20;;;;;;;;;;5060497;28;20119;-70
2022/06/20 01:52:28;;;;;;;5.88;4.95;;;;;;;;;;5052955;28;20024;-70
2022/06/20 01:54:57;;;;;;;6.47;4.70;;;;;;;;;;5061479;28;20027;-70
2022/06/20 01:57:23;;;;;;;4.80;4.40;;;;;;;;;;5062103;28;20086;-69
2022/06/20 02:00:01;;;;;;;5.10;4.60;;;;;;;;;;5062943;28;20114;-69
2022/06/20 02:02:27;;;;;;;5.30;4.80;;;;;;;;;;5062150;28;20032;-70
2022/06/20 02:04:54;;;;;;;6.88;5.18;;;;;;;;;;5056119;28;20032;-70
2022/06/20 02:07:20;;;;;;;5.43;4.80;;;;;;;;;;5057545;28;20036;-69
2022/06/20 02:09:46;;;;;;;5.15;4.57;;;;;;;;;;5057218;28;20090;-70
2022/06/20 02:12:13;;;;;;;5.68;5.18;;;;;;;;;;5056622;28;20098;-70
2022/06/20 02:14:59;;;;;;;5.82;4.85;;;;;;;;;;5056259;28;20040;-69
2022/06/20 02:17:41;;;;;;;6.57;5.07;;;;;;;;;;5063781;28;20024;-70
2022/06/20 02:20:12;;;;;;;5.70;4.65;;;;;;;;;;5056896;28;20037;-69
2022/06/20 02:22:39;;;;;;;5.95;5.47;;;;;;;;;;5063232;28;20027;-70
2022/06/20 02:25:07;;;;;;;5.95;5.43;;;;;;;;;;5063138;28;20029;-70
2022/06/20 02:27:36;;;;;;;6.15;4.93;;;;;;;;;;5046796;28;20024;-70
2022/06/20 02:30:04;;;;;;;5.78;5.18;;;;;;;;;;5062132;28;20053;-69
2022/06/20 02:32:33;;;;;;;7.82;5.15;;;;;;;;;;5065393;28;20437;-69
2022/06/20 02:34:59;;;;;;;5.90;5.07;;;;;;;;;;5064249;28;20033;-69
2022/06/20 02:37:26;;;;;;;5.75;5.15;;;;;;;;;;5066494;28;20021;-68
2022/06/20 02:39:54;;;;;;;6.53;5.30;;;;;;;;;;5065760;28;20534;-69
2022/06/20 02:42:24;;;;;;;5.70;5.20;;;;;;;;;;5057338;28;20029;-68
2022/06/20 02:44:51;;;;;;;7.80;5.15;;;;;;;;;;5059076;28;20032;-68
2022/06/20 02:47:18;;;;;;;6.10;5.10;;;;;;;;;;5062367;28;20426;-69
2022/06/20 02:49:45;;;;;;;7.35;5.20;;;;;;;;;;5060309;28;20028;-68
2022/06/20 02:52:15;;;;;;;8.18;5.63;;;;;;;;;;5060004;28;20033;-69
2022/06/20 02:54:41;;;;;;;5.90;5.40;;;;;;;;;;5057107;28;20037;-70
2022/06/20 02:57:20;;;;;;;5.82;5.32;;;;;;;;;;5060407;28;20040;-69
2022/06/20 02:59:52;;;;;;;6.22;5.63;;;;;;;;;;5061557;28;20476;-70
2022/06/20 03:02:21;;;;;;;6.63;5.40;;;;;;;;;;5059391;28;20561;-69
2022/06/20 03:04:47;;;;;;;5.70;4.93;;;;;;;;;;5063242;28;20040;-70
2022/06/20 03:07:15;;;;;;;5.97;5.38;;;;;;;;;;5044503;28;20047;-70
2022/06/20 03:09:43;;;;;;;6.68;5.47;;;;;;;;;;5065993;28;20032;-69
2022/06/20 03:12:09;;;;;;;7.95;5.75;;;;;;;;;;5064914;28;20059;-70
2022/06/20 03:14:42;;;;;;;6.22;5.60;;;;;;;;;;5065131;28;20027;-69
2022/06/20 03:17:09;;;;;;;8.30;5.97;;;;;;;;;;5059162;28;20021;-68
2022/06/20 03:19:38;;;;;;;5.95;5.10;;;;;;;;;;5059371;28;20075;-68
2022/06/20 03:22:06;;;;;;;5.75;5.25;;;;;;;;;;5053167;28;20029;-68
2022/06/20 03:24:32;;;;;;;6.05;5.38;;;;;;;;;;5049988;28;20093;-68
2022/06/20 03:27:00;;;;;;;8.98;5.65;;;;;;;;;;5056406;28;20041;-69
2022/06/20 03:29:26;;;;;;;6.20;5.68;;;;;;;;;;5057598;28;20106;-68
2022/06/20 03:31:53;;;;;;;6.47;5.90;;;;;;;;;;5055460;28;20033;-70
2022/06/20 03:34:21;;;;;;;6.70;5.57;;;;;;;;;;5063996;28;20021;-69
2022/06/20 03:36:49;;;;;;;5.82;5.32;;;;;;;;;;5061500;28;20024;-68
2022/06/20 03:39:16;;;;;;;7.35;5.95;;;;;;;;;;5059269;28;20116;-69
2022/06/20 03:41:43;;;;;;;6.43;5.47;;;;;;;;;;5056300;28;20040;-69
2022/06/20 03:44:17;;;;;;;6.03;5.47;;;;;;;;;;5056398;28;20552;-69
2022/06/20 03:46:56;;;;;;;6.50;5.85;;;;;;;;;;5056446;28;20032;-69
2022/06/20 03:49:27;;;;;;;6.18;5.57;;;;;;;;;;5056077;28;20028;-69
2022/06/20 03:52:01;;;;;;;6.13;5.60;;;;;;;;;;5055149;28;20473;-69
2022/06/20 03:54:35;;;;;;;6.00;5.50;;;;;;;;;;5065767;28;20040;-69
2022/06/20 03:57:13;;;;;;;6.20;5.07;;;;;;;;;;5053881;28;20072;-69
2022/06/20 03:59:44;;;;;;;5.85;5.30;;;;;;;;;;5057309;28;20025;-68
2022/06/20 04:02:22;;;;;;;7.13;5.22;;;;;;;;;;5058374;28;20033;-69
2022/06/20 04:04:48;;;;;;;7.55;5.35;;;;;;;;;;5054862;28;20040;-68
2022/06/20 04:07:21;;;;;;;5.15;4.68;;;;;;;;;;5059697;28;20404;-69
2022/06/20 04:12:39;;;;;;;5.22;4.82;;;;;;;;;;5056676;28;20048;-69
2022/06/20 04:15:20;;;;;;;6.57;5.82;;;;;;;;;;5053542;28;20047;-69
2022/06/20 04:20:56;;;;;;;6.18;5.30;;;;;;;;;;5056805;28;20040;-69
2022/06/20 04:23:26;;;;;;;7.25;5.43;;;;;;;;;;5052538;28;20043;-69
2022/06/20 04:26:07;;;;;;;7.43;5.78;;;;;;;;;;5055806;28;20040;-69
2022/06/20 04:28:56;;;;;;;7.60;6.28;;;;;;;;;;5051594;28;20041;-68
2022/06/20 04:31:43;;;;;;;6.13;5.53;;;;;;;;;;5055495;28;20043;-69
2022/06/20 04:34:24;;;;;;;9.25;5.80;;;;;;;;;;5053149;28;20021;-69
2022/06/20 04:36:56;;;;;;;6.75;6.15;;;;;;;;;;5055166;28;20025;-69
2022/06/20 04:39:26;;;;;;;8.43;5.68;;;;;;;;;;5059841;28;20039;-69
2022/06/20 04:41:57;;;;;;;7.00;6.30;;;;;;;;;;5048517;28;20599;-70
2022/06/20 04:44:30;;;;;;;9.23;6.40;;;;;;;;;;5044546;28;20028;-68
2022/06/20 04:46:59;;;;;;;7.50;5.90;;;;;;;;;;5053959;28;20038;-69
2022/06/20 04:49:25;;;;;;;11.98;6.15;;;;;;;;;;5051226;28;20036;-70
2022/06/20 04:51:52;;;;;;;6.90;6.25;;;;;;;;;;5060118;28;20032;-68
2022/06/20 04:54:20;;;;;;;6.93;6.05;;;;;;;;;;5050725;28;20052;-68
2022/06/20 04:56:48;;;;;;;9.52;5.90;;;;;;;;;;5057153;28;20413;-70
2022/06/20 04:59:18;;;;;;;10.02;5.38;;;;;;;;;;5060063;28;20397;-69
2022/06/20 05:01:44;;;;;;;8.80;6.18;;;;;;;;;;5055541;28;20037;-69
2022/06/20 05:04:11;;;;;;;6.75;6.05;;;;;;;;;;5055958;28;20029;-70
2022/06/20 05:06:38;;;;;;;7.80;6.10;;;;;;;;;;5034949;28;20587;-71
2022/06/20 05:09:16;;;;;;;11.82;6.05;;;;;;;;;;5047773;28;20029;-71
2022/06/20 05:11:50;;;;;;;9.25;6.30;;;;;;;;;;5062613;28;20029;-70
2022/06/20 05:14:29;;;;;;;9.13;5.82;;;;;;;;;;5052960;28;20032;-70
2022/06/20 05:16:55;;;;;;;10.05;5.97;;;;;;;;;;5049728;28;20025;-71
2022/06/20 05:19:23;;;;;;;10.35;6.00;;;;;;;;;;5057568;28;20032;-70
2022/06/20 05:21:52;;;;;;;9.13;6.63;;;;;;;;;;5054572;28;20028;-70
2022/06/20 05:24:20;;;;;;;7.88;6.10;;;;;;;;;;5053033;28;20139;-71
2022/06/20 05:26:48;;;;;;;6.40;5.72;;;;;;;;;;5046680;28;20032;-71
2022/06/20 05:29:17;;;;;;;7.22;6.20;;;;;;;;;;5055584;28;20095;-71
2022/06/20 05:31:45;;;;;;;8.77;6.50;;;;;;;;;;5054697;28;20036;-71
2022/06/20 05:34:11;;;;;;;12.82;6.65;;;;;;;;;;5049066;28;20048;-72
2022/06/20 05:36:58;;;;;;;7.05;6.32;;;;;;;;;;5049650;28;20033;-72
2022/06/20 05:39:28;;;;;;;8.85;6.30;;;;;;;;;;5050859;28;20112;-73
2022/06/20 05:41:54;;;;;;;8.65;6.20;;;;;;;;;;5060885;28;20623;-72
2022/06/20 05:44:21;;;;;;;11.40;7.00;;;;;;;;;;5063574;28;20060;-73
2022/06/20 05:46:51;;;;;;;8.50;6.32;;;;;;;;;;5052827;28;20028;-73
2022/06/20 05:49:37;;;;;;;9.02;7.22;;;;;;;;;;5061605;28;20103;-73
2022/06/20 05:52:06;;;;;;;8.98;7.03;;;;;;;;;;5046488;28;20041;-72
2022/06/20 05:54:35;;;;;;;8.93;7.60;;;;;;;;;;5049816;28;20029;-72
2022/06/20 05:57:27;;;;;;;8.25;7.45;;;;;;;;;;5049914;28;20028;-72
2022/06/20 05:59:56;;;;;;;9.63;7.40;;;;;;;;;;5048524;28;20048;-73
2022/06/20 06:02:24;;;;;;;8.98;7.82;;;;;;;;;;5050886;28;20029;-72
2022/06/20 06:05:08;;;;;;;11.10;7.35;;;;;;;;;;5051728;28;20025;-72
2022/06/20 06:07:42;;;;;;;6.60;6.00;;;;;;;;;;5030747;28;20107;-73
2022/06/20 06:10:23;;;;;;;7.00;6.30;;;;;;;;;;5053544;28;20036;-73
2022/06/20 06:12:53;;;;;;;8.02;5.95;;;;;;;;;;5049536;28;20037;-72
2022/06/20 06:15:27;;;;;;;5.75;5.20;;;;;;;;;;5046959;28;20025;-72
2022/06/20 06:18:04;;;;;;;7.50;5.13;;;;;;;;;;5056626;28;20025;-73
2022/06/20 06:20:32;;;;;;;5.60;5.10;;;;;;;;;;5057495;28;20463;-73
2022/06/20 06:23:01;;;;;;;6.25;5.28;;;;;;;;;;5044525;28;20081;-73
2022/06/20 06:25:37;;;;;;;7.40;5.78;;;;;;;;;;5056262;28;20079;-73
2022/06/20 06:28:03;;;;;;;5.78;5.28;;;;;;;;;;5052831;28;20028;-73
2022/06/20 06:30:32;;;;;;;8.82;5.90;;;;;;;;;;5046847;28;20501;-73
2022/06/20 06:33:10;;;;;;;5.95;5.45;;;;;;;;;;5054403;28;20039;-72
2022/06/20 06:35:38;;;;;;;6.57;5.85;;;;;;;;;;5049547;28;20046;-72
2022/06/20 06:38:05;;;;;;;6.55;5.93;;;;;;;;;;5054862;28;20024;-72
2022/06/20 06:40:52;;;;;;;10.20;6.20;;;;;;;;;;5057096;28;20070;-72
2022/06/20 06:43:29;;;;;;;7.93;5.95;;;;;;;;;;5053211;28;20850;-72
2022/06/20 06:46:00;;;;;;;8.73;5.78;;;;;;;;;;5051431;28;20025;-72
2022/06/20 06:48:28;;;;;;;6.43;5.77;;;;;;;;;;5057335;28;20032;-72
2022/06/20 06:50:57;;;;;;;8.73;6.38;;;;;;;;;;5047124;28;20020;-71
2022/06/20 06:53:28;;;;;;;7.05;6.22;;;;;;;;;;5054422;28;20085;-74
2022/06/20 06:55:59;;;;;;;6.27;5.67;;;;;;;;;;5054829;28;20032;-73
2022/06/20 06:58:29;;;;;;;10.98;6.80;;;;;;;;;;5058480;28;20293;-73
2022/06/20 07:01:08;;;;;;;11.18;5.78;;;;;;;;;;5061398;28;20753;-73
2022/06/20 07:03:37;;;;;;;10.88;6.07;;;;;;;;;;5058229;28;20032;-73
2022/06/20 07:06:06;;;;;;;9.73;5.72;;;;;;;;;;5052610;28;20112;-73
2022/06/20 07:08:48;;;;;;;5.57;5.07;;;;;;;;;;5055130;28;20033;-72
2022/06/20 07:11:21;;;;;;;5.97;5.18;;;;;;;;;;5053455;28;20039;-71
2022/06/20 07:13:47;;;;;;;8.82;5.47;;;;;;;;;;5054850;28;20044;-71
2022/06/20 07:16:39;;;;;;;8.23;5.70;;;;;;;;;;5055835;28;20536;-71
2022/06/20 07:19:06;;;;;;;6.70;5.18;;;;;;;;;;5051899;28;20045;-71
2022/06/20 07:21:33;;;;;;;6.20;5.70;;;;;;;;;;5053392;28;20523;-71
2022/06/20 07:24:01;;;;;;;5.90;4.70;;;;;;;;;;5043494;28;20025;-71
2022/06/20 07:26:31;;;;;;;6.90;4.95;;;;;;;;;;5052869;28;20801;-71
2022/06/20 07:29:05;;;;;;;6.03;5.05;;;;;;;;;;5035105;28;20052;-71
2022/06/20 07:31:36;;;;;;;9.07;5.55;;;;;;;;;;5058499;28;20045;-71
2022/06/20 07:34:06;;;;;;;6.93;5.68;;;;;;;;;;5058309;28;20630;-71
2022/06/20 07:36:40;;;;;;;8.40;5.43;;;;;;;;;;5060349;28;20029;-71
2022/06/20 07:39:11;;;;;;;7.15;5.93;;;;;;;;;;5061098;28;20050;-71
2022/06/20 07:41:37;;;;;;;9.05;6.10;;;;;;;;;;5048951;28;20029;-71
2022/06/20 07:44:11;;;;;;;8.73;5.82;;;;;;;;;;5047884;28;20024;-71
2022/06/20 07:46:49;;;;;;;7.40;5.40;;;;;;;;;;5061342;28;20044;-70
2022/06/20 07:49:24;;;;;;;7.70;5.57;;;;;;;;;;5054089;28;20465;-71
2022/06/20 07:51:51;;;;;;;6.28;5.43;;;;;;;;;;5051989;28;20052;-71
2022/06/20 07:54:18;;;;;;;5.97;5.47;;;;;;;;;;5055700;28;20024;-70
2022/06/20 07:56:56;;;;;;;6.00;5.43;;;;;;;;;;5052571;28;20021;-70
2022/06/20 07:59:35;;;;;;;8.45;5.72;;;;;;;;;;5041391;28;20031;-70
2022/06/20 08:02:08;;;;;;;6.00;5.15;;;;;;;;;;5061268;28;20538;-70
2022/06/20 08:04:35;;;;;;;6.57;5.18;;;;;;;;;;5057522;28;20032;-71
2022/06/20 08:07:13;;;;;;;6.75;5.32;;;;;;;;;;5059551;28;20021;-71
2022/06/20 08:09:48;;;;;;;6.40;5.45;;;;;;;;;;5054604;28;20153;-71
2022/06/20 08:12:15;;;;;;;6.53;5.38;;;;;;;;;;5050135;28;20057;-70
2022/06/20 08:14:44;;;;;;;6.68;5.70;;;;;;;;;;5061475;28;20203;-70
2022/06/20 08:17:11;;;;;;;5.25;4.82;;;;;;;;;;5049802;28;20425;-71
2022/06/20 08:19:38;;;;;;;11.45;6.00;;;;;;;;;;5059369;28;20029;-71
2022/06/20 08:22:08;;;;;;;6.20;5.65;;;;;;;;;;5057941;28;20491;-70
2022/06/20 08:24:40;;;;;;;6.22;5.50;;;;;;;;;;5052155;28;20028;-70
2022/06/20 08:27:08;;;;;;;5.22;4.82;;;;;;;;;;5039906;28;20469;-71
2022/06/20 08:29:38;;;;;;;12.20;5.35;;;;;;;;;;5050467;28;20037;-71
2022/06/20 08:32:09;;;;;;;6.80;5.28;;;;;;;;;;5057616;28;20045;-70
2022/06/20 08:35:02;;;;;;;5.67;4.93;;;;;;;;;;5060253;28;20642;-70
2022/06/20 08:37:37;;;;;;;6.00;5.40;;;;;;;;;;5023506;28;20057;-70
2022/06/20 08:40:16;;;;;;;6.90;5.03;;;;;;;;;;5057012;28;20148;-70
2022/06/20 08:43:05;;;;;;;6.10;4.72;;;;;;;;;;5052457;28;20034;-71
2022/06/20 08:45:31;;;;;;;8.95;5.47;;;;;;;;;;5061910;28;20069;-70
2022/06/20 08:48:26;;;;;;;5.93;4.63;;;;;;;;;;5063813;28;20056;-71
2022/06/20 08:50:58;;;;;;;5.53;4.72;;;;;;;;;;4992858;28;20053;-70
2022/06/20 08:53:43;;;;;;;5.60;4.88;;;;;;;;;;5062523;28;20013;-71
2022/06/20 08:56:32;;;;;;;5.53;4.78;;;;;;;;;;5058127;28;20025;-70
2022/06/20 08:59:05;;;;;;;5.78;4.95;;;;;;;;;;5044908;28;20024;-71
2022/06/20 09:01:38;;;;;;;6.93;4.88;;;;;;;;;;5050512;28;20109;-70
2022/06/20 09:04:07;;;;;;;5.07;4.60;;;;;;;;;;5048599;28;20029;-70
2022/06/20 09:06:53;;;;;;;5.18;4.43;;;;;;;;;;5050483;28;20025;-70
2022/06/20 09:09:19;;;;;;;8.13;4.57;;;;;;;;;;5047214;28;20028;-71
2022/06/20 09:11:45;;;;;;;5.78;4.20;;;;;;;;;;5061309;28;20396;-70
2022/06/20 09:14:21;;;;;;;5.13;4.47;;;;;;;;;;5066528;28;20013;-71
2022/06/20 09:17:00;;;;;;;7.78;4.55;;;;;;;;;;5057856;28;20051;-70
2022/06/20 09:19:43;;;;;;;5.45;4.95;;;;;;;;;;5052830;28;20103;-71
2022/06/20 09:22:12;;;;;;;7.28;4.63;;;;;;;;;;5051002;28;20377;-70
2022/06/20 09:24:44;;;;;;;4.85;4.30;;;;;;;;;;5058039;28;20033;-71
2022/06/20 09:27:22;;;;;;;5.18;4.65;;;;;;;;;;5056255;28;20510;-70
2022/06/20 09:30:03;;;;;;;6.72;4.57;;;;;;;;;;5058750;28;20059;-70
2022/06/20 09:32:47;;;;;;;4.75;4.20;;;;;;;;;;5050900;28;20013;-70
2022/06/20 09:35:19;;;;;;;5.10;4.20;;;;;;;;;;5054152;28;20025;-70
2022/06/20 09:38:04;;;;;;;5.15;4.22;;;;;;;;;;5054636;28;20037;-70
2022/06/20 09:40:40;;;;;;;6.20;4.32;;;;;;;;;;5059244;28;20028;-70
2022/06/20 09:43:12;;;;;;;6.40;3.80;;;;;;;;;;5056337;28;20138;-70
2022/06/20 09:45:49;;;;;;;6.22;4.28;;;;;;;;;;5050666;28;20012;-70
2022/06/20 09:48:19;;;;;;;4.63;4.22;;;;;;;;;;5053647;28;20025;-70
2022/06/20 09:50:45;;;;;;;4.75;4.00;;;;;;;;;;5058001;28;20116;-70
2022/06/20 09:53:14;;;;;;;5.15;4.30;;;;;;;;;;5054939;28;20239;-70
2022/06/20 09:56:19;;;;;;;5.93;4.30;;;;;;;;;;5055085;28;20024;-70
2022/06/20 09:58:50;;;;;;;4.55;4.13;;;;;;;;;;4983305;28;20030;-71
2022/06/20 10:01:30;;;;;;;4.63;3.95;;;;;;;;;;4983366;28;20046;-70
2022/06/20 10:04:02;;;;;;;6.07;4.22;;;;;;;;;;5020566;28;20049;-71
2022/06/20 10:06:44;;;;;;;6.30;4.40;;;;;;;;;;5057472;28;20016;-71
2022/06/20 10:09:19;;;;;;;4.65;3.90;;;;;;;;;;5055056;28;20028;-70
2022/06/20 10:11:50;;;;;;;5.07;3.85;;;;;;;;;;5061473;28;20028;-71
2022/06/20 10:14:16;;;;;;;4.60;4.20;;;;;;;;;;5065308;28;20033;-71
2022/06/20 10:16:53;;;;;;;4.18;3.78;;;;;;;;;;5063819;28;20082;-70
2022/06/20 10:19:28;;;;;;;4.40;4.00;;;;;;;;;;5064676;28;20323;-71
2022/06/20 10:22:03;;;;;;;5.40;4.07;;;;;;;;;;5055256;28;20029;-70
2022/06/20 10:24:42;;;;;;;4.65;4.10;;;;;;;;;;5056122;28;20496;-70
2022/06/20 10:27:08;;;;;;;4.65;4.15;;;;;;;;;;5054589;28;20357;-70
2022/06/20 10:29:54;;;;;;;4.38;3.80;;;;;;;;;;5049017;28;20040;-71
2022/06/20 10:32:43;;;;;;;4.25;3.80;;;;;;;;;;5057177;28;20040;-71
2022/06/20 10:35:10;;;;;;;5.60;3.80;;;;;;;;;;5048603;28;20089;-70
2022/06/20 10:37:54;;;;;;;6.15;4.35;;;;;;;;;;5048720;28;20047;-70
2022/06/20 10:40:29;;;;;;;4.28;3.85;;;;;;;;;;5054051;28;20086;-71
2022/06/20 10:43:10;;;;;;;4.00;3.67;;;;;;;;;;5057594;28;20350;-71
2022/06/20 10:45:42;;;;;;;4.65;4.20;;;;;;;;;;5043049;28;20021;-70
2022/06/20 10:48:14;;;;;;;5.80;4.13;;;;;;;;;;5047137;28;20021;-70
2022/06/20 10:50:40;;;;;;;4.97;4.10;;;;;;;;;;5051233;28;20021;-71
2022/06/20 10:53:21;;;;;;;4.47;3.72;;;;;;;;;;5063185;28;20031;-71
2022/06/20 10:55:52;;;;;;;4.35;3.92;;;;;;;;;;5064535;28;20017;-71
2022/06/20 10:58:29;;;;;;;4.40;4.00;;;;;;;;;;5064732;28;20029;-71
2022/06/20 11:01:15;;;;;;;4.25;3.38;;;;;;;;;;5064953;28;20028;-70
2022/06/20 11:03:51;;;;;;;4.13;3.72;;;;;;;;;;5046473;28;20120;-71
2022/06/20 11:06:35;;;;;;;5.47;3.70;;;;;;;;;;5050918;28;20025;-71
2022/06/20 11:09:28;;;;;;;5.20;4.10;;;;;;;;;;5063693;28;20032;-71
2022/06/20 11:12:05;;;;;;;5.18;4.07;;;;;;;;;;5030268;28;20385;-70
2022/06/20 11:14:51;;;;;;;5.18;3.75;;;;;;;;;;5049224;28;20052;-70
2022/06/20 11:17:32;;;;;;;6.90;4.15;;;;;;;;;;5048188;28;20025;-70
2022/06/20 11:20:12;;;;;;;7.30;3.97;;;;;;;;;;5053374;28;20037;-71
2022/06/20 11:22:44;;;;;;;6.00;3.90;;;;;;;;;;5055354;28;20021;-71
2022/06/20 11:25:28;;;;;;;5.97;4.60;;;;;;;;;;5055000;28;20020;-70
2022/06/20 11:28:03;;;;;;;4.55;4.15;;;;;;;;;;5046753;28;20025;-71
2022/06/20 11:30:39;;;;;;;8.88;4.82;;;;;;;;;;5054626;28;20039;-71
2022/06/20 11:34:00;;;;;;;4.90;4.40;;;;;;;;;;5048448;28;20025;-71
2022/06/20 11:36:13;;;;;;;4.43;4.03;;;;;;;;;;5056026;28;20441;-71
2022/06/20 11:38:54;;;;;;;5.38;4.38;;;;;;;;;;5055586;28;20027;-71
2022/06/20 11:41:30;;;;;;;5.32;4.82;;;;;;;;;;5049095;28;20032;-71
2022/06/20 11:44:06;;;;;;;5.90;4.20;;;;;;;;;;5051138;28;20025;-70
2022/06/20 11:46:51;;;;;;;8.25;4.53;;;;;;;;;;5059172;28;20025;-71
2022/06/20 11:49:35;;;;;;;5.60;4.28;;;;;;;;;;5058727;28;20024;-71
2022/06/20 11:52:06;;;;;;;6.50;4.78;;;;;;;;;;5054451;28;20017;-71
2022/06/20 11:54:37;;;;;;;6.10;4.53;;;;;;;;;;5050478;28;20052;-71
2022/06/20 11:57:03;;;;;;;5.03;4.30;;;;;;;;;;5053455;28;20040;-75
2022/06/20 11:59:30;;;;;;;8.85;4.53;;;;;;;;;;5038899;28;20614;-71
2022/06/20 12:02:05;;;;;;;4.78;4.40;;;;;;;;;;5053994;28;20112;-70
2022/06/20 12:04:41;;;;;;;6.10;4.57;;;;;;;;;;5054092;28;20095;-70
2022/06/20 12:07:15;;;;;;;6.07;4.53;;;;;;;;;;5060429;28;20115;-71
2022/06/20 12:09:50;;;;;;;5.22;4.40;;;;;;;;;;5060734;28;20086;-71
2022/06/20 12:12:35;;;;;;;6.70;4.68;;;;;;;;;;5038918;28;20028;-72
2022/06/20 12:15:16;;;;;;;5.40;4.55;;;;;;;;;;5056508;28;20032;-70
2022/06/20 12:17:49;;;;;;;4.53;3.95;;;;;;;;;;5041627;28;20040;-72
2022/06/20 12:23:21;;;;;;;6.55;4.13;;;;;;;;;;5052223;28;20089;-71
2022/06/20 12:25:56;;;;;;;5.00;4.50;;;;;;;;;;5037600;28;20123;-70
2022/06/20 12:28:33;;;;;;;5.97;4.35;;;;;;;;;;5052747;28;20655;-72
2022/06/20 12:31:00;;;;;;;4.53;4.13;;;;;;;;;;5052258;28;20032;-73
2022/06/20 12:33:26;;;;;;;4.85;3.90;;;;;;;;;;5053651;28;20024;-71
2022/06/20 12:35:55;;;;;;;4.40;3.80;;;;;;;;;;5053485;28;20052;-71
2022/06/20 12:38:44;;;;;;;5.28;4.70;;;;;;;;;;5051825;28;20024;-73
2022/06/20 12:41:12;;;;;;;4.68;3.65;;;;;;;;;;5054817;28;20036;-72
2022/06/20 12:43:41;;;;;;;4.35;3.95;;;;;;;;;;5055556;28;20094;-75
2022/06/20 12:46:07;;;;;;;6.25;4.35;;;;;;;;;;5051694;28;20238;-73
2022/06/20 12:48:36;;;;;;;7.70;4.68;;;;;;;;;;5056151;28;20017;-73
2022/06/20 12:51:22;;;;;;;5.28;4.50;;;;;;;;;;5059062;28;20029;-72
2022/06/20 12:53:57;;;;;;;5.22;4.35;;;;;;;;;;5052221;28;20105;-72
2022/06/20 12:56:36;;;;;;;5.88;4.13;;;;;;;;;;5049396;28;20553;-72
2022/06/20 12:59:03;;;;;;;6.65;4.10;;;;;;;;;;5039505;28;20217;-72
2022/06/20 13:01:32;;;;;;;5.05;4.53;;;;;;;;;;5055873;28;20097;-72
2022/06/20 13:04:08;;;;;;;5.72;4.10;;;;;;;;;;5049115;28;20123;-71
2022/06/20 13:06:46;;;;;;;6.32;4.53;;;;;;;;;;5055065;28;20107;-72
2022/06/20 13:09:15;;;;;;;7.60;5.05;;;;;;;;;;5049416;28;20033;-73
2022/06/20 13:11:47;;;;;;;4.75;4.35;;;;;;;;;;5048680;28;20036;-72
2022/06/20 13:14:25;;;;;;;7.93;4.57;;;;;;;;;;5048836;28;20060;-73
2022/06/20 13:17:03;;;;;;;5.45;4.78;;;;;;;;;;5048699;28;20035;-72
2022/06/20 13:19:38;;;;;;;5.85;4.70;;;;;;;;;;5050603;28;20027;-74
2022/06/20 13:22:22;;;;;;;5.50;4.57;;;;;;;;;;5047907;28;20360;-75
2022/06/20 13:24:58;;;;;;;6.43;5.10;;;;;;;;;;5033777;28;20033;-72
2022/06/20 13:27:30;;;;;;;6.07;4.78;;;;;;;;;;5047804;28;20035;-72
2022/06/20 13:30:14;;;;;;;8.27;4.75;;;;;;;;;;5048192;28;20058;-72
2022/06/20 13:33:01;;;;;;;5.35;4.72;;;;;;;;;;5053527;28;20033;-74
2022/06/20 13:35:36;;;;;;;5.07;4.57;;;;;;;;;;5053289;28;20300;-72
2022/06/20 13:38:10;;;;;;;4.63;3.88;;;;;;;;;;5053761;28;20067;-71
2022/06/20 13:40:49;;;;;;;5.03;4.20;;;;;;;;;;5048726;28;20043;-72
2022/06/20 13:43:25;;;;;;;6.25;4.82;;;;;;;;;;5051549;28;20036;-72
2022/06/20 13:45:58;;;;;;;7.47;4.88;;;;;;;;;;5045992;28;20040;-72
2022/06/20 13:48:33;;;;;;;6.28;4.28;;;;;;;;;;5054670;28;20059;-72
2022/06/20 13:51:13;;;;;;;7.38;4.53;;;;;;;;;;5048963;28;20537;-74
2022/06/20 13:53:46;;;;;;;5.50;4.93;;;;;;;;;;5045381;28;20040;-73
2022/06/20 13:56:20;;;;;;;5.68;3.97;;;;;;;;;;5046506;28;20037;-73
2022/06/20 13:58:55;;;;;;;4.50;4.10;;;;;;;;;;5047128;28;20029;-73
2022/06/20 14:01:23;;;;;;;6.25;4.43;;;;;;;;;;5049012;28;20500;-72
2022/06/20 14:04:00;;;;;;;4.82;4.10;;;;;;;;;;5047372;28;20060;-72
2022/06/20 14:06:39;;;;;;;5.47;4.90;;;;;;;;;;5051248;28;20111;-73
2022/06/20 14:09:05;;;;;;;4.85;4.40;;;;;;;;;;5047299;28;20436;-72
2022/06/20 14:11:43;;;;;;;6.78;4.53;;;;;;;;;;5052853;28;20033;-72
2022/06/20 14:14:15;;;;;;;6.25;4.72;;;;;;;;;;5049239;28;20090;-73
2022/06/20 14:16:45;;;;;;;7.20;4.70;;;;;;;;;;5043380;28;20580;-72
2022/06/20 14:19:22;;;;;;;5.78;5.00;;;;;;;;;;5049603;28;20028;-72
2022/06/20 14:21:50;;;;;;;5.43;4.93;;;;;;;;;;5050786;28;20053;-73
2022/06/20 14:24:16;;;;;;;5.15;4.72;;;;;;;;;;5049743;28;20036;-74
2022/06/20 14:26:44;;;;;;;5.65;4.80;;;;;;;;;;5043410;28;20512;-72
2022/06/20 14:29:19;;;;;;;6.15;4.53;;;;;;;;;;5050776;28;20163;-73
2022/06/20 14:32:06;;;;;;;7.18;4.90;;;;;;;;;;5044577;28;20033;-72
2022/06/20 14:37:37;;;;;;;6.80;4.60;;;;;;;;;;5047147;28;20085;-73
2022/06/20 14:40:06;;;;;;;8.32;4.80;;;;;;;;;;5052964;28;20058;-72
2022/06/20 14:42:35;;;;;;;6.18;4.70;;;;;;;;;;5048479;28;20025;-75
2022/06/20 14:45:04;;;;;;;7.25;5.20;;;;;;;;;;5052316;28;20058;-72
2022/06/20 14:47:49;;;;;;;5.25;4.75;;;;;;;;;;5052043;28;20032;-72
2022/06/20 14:50:41;;;;;;;5.50;5.00;;;;;;;;;;5045372;28;20054;-74
2022/06/20 14:53:16;;;;;;;6.63;4.95;;;;;;;;;;5020895;28;20489;-72
2022/06/20 14:55:54;;;;;;;6.05;5.20;;;;;;;;;;5047323;28;20032;-74
2022/06/20 14:58:39;;;;;;;6.53;5.20;;;;;;;;;;5051808;28;20527;-75
2022/06/20 15:01:06;;;;;;;8.35;5.43;;;;;;;;;;5055377;28;20583;-73
2022/06/20 15:03:50;;;;;;;5.40;4.78;;;;;;;;;;5056882;28;20154;-73
2022/06/20 15:06:22;;;;;;;5.47;4.72;;;;;;;;;;5048226;28;20427;-73
2022/06/20 15:08:56;;;;;;;7.18;5.18;;;;;;;;;;5047224;28;20099;-73
2022/06/20 15:11:22;;;;;;;5.95;4.97;;;;;;;;;;5051247;28;20033;-73
2022/06/20 15:13:52;;;;;;;5.40;4.85;;;;;;;;;;5042622;28;20029;-73
2022/06/20 15:16:19;;;;;;;5.82;4.75;;;;;;;;;;5048540;28;20032;-73
2022/06/20 15:19:09;;;;;;;6.32;5.28;;;;;;;;;;5047225;28;20033;-73
2022/06/20 15:21:43;;;;;;;5.18;4.68;;;;;;;;;;5047714;28;20056;-74
2022/06/20 15:24:28;;;;;;;5.55;4.20;;;;;;;;;;5050124;28;20036;-73
2022/06/20 15:27:03;;;;;;;5.78;4.60;;;;;;;;;;5043129;28;20470;-72
2022/06/20 15:29:45;;;;;;;7.40;4.53;;;;;;;;;;5049137;28;20049;-72
2022/06/20 15:32:26;;;;;;;4.97;4.47;;;;;;;;;;5047831;28;20025;-72